Time;durP1;ratioP1;P1;durP2;ratioP2;P2;SDS_P1;SDS_P2;PMS_P1;PMS_P2;Temp;Humidity;BMP_temperature;BMP_pressure;BME280_temperature;BME280_humidity;BME280_pressure;Samples;Min_cycle;Max_cycle;Signal;HPM_P1;HPM_P2
2024/02/18 00:01:33;;;;;;;;;;;;;;;25.51;22.58;99618.56;5100575;28;19927;-79
2024/02/18 00:03:59;;;;;;;;;;;;;;;25.70;22.50;99618.88;5106082;28;19997;-79
2024/02/18 00:06:27;;;;;;;;;;;;;;;25.68;22.42;99620.50;5110535;28;19923;-79
2024/02/18 00:08:53;;;;;;;;;;;;;;;24.58;23.51;99620.63;5094202;28;20293;-79
2024/02/18 00:11:19;;;;;;;;;;;;;;;25.05;22.82;99618.63;5093475;28;19920;-79
2024/02/18 00:13:45;;;;;;;;;;;;;;;25.27;22.52;99626.63;5093209;28;19957;-79
2024/02/18 00:16:11;;;;;;;;;;;;;;;25.37;22.38;99628.59;5093334;28;19920;-79
2024/02/18 00:18:37;;;;;;;;;;;;;;;25.07;22.41;99624.66;5093379;28;19923;-79
2024/02/18 00:21:04;;;;;;;;;;;;;;;24.30;23.18;99643.06;5116356;28;19927;-79
2024/02/18 00:23:30;;;;;;;;;;;;;;;24.60;22.69;99642.69;5127558;28;20018;-79
2024/02/18 00:25:56;;;;;;;;;;;;;;;25.37;22.19;99651.09;5093709;28;19917;-79
2024/02/18 00:28:22;;;;;;;;;;;;;;;24.38;23.17;99652.31;5094272;28;19920;-79
2024/02/18 00:30:50;;;;;;;;;;;;;;;24.45;22.96;99649.50;5103417;28;19928;-79
2024/02/18 00:33:17;;;;;;;;;;;;;;;24.12;23.60;99653.44;5104939;28;20034;-79
2024/02/18 00:35:43;;;;;;;;;;;;;;;24.10;25.47;99644.63;5106628;28;19920;-79
2024/02/18 00:38:09;;;;;;;;;;;;;;;24.31;23.30;99652.28;5104316;28;19977;-79
2024/02/18 00:40:35;;;;;;;;;;;;;;;24.78;22.67;99656.78;5094302;28;19924;-79
2024/02/18 00:43:01;;;;;;;;;;;;;;;25.28;22.32;99649.91;5103298;28;20018;-79
2024/02/18 00:45:27;;;;;;;;;;;;;;;25.28;22.38;99647.91;5099941;28;20278;-79
2024/02/18 00:47:53;;;;;;;;;;;;;;;25.52;21.88;99656.72;5104151;28;19924;-79
2024/02/18 00:50:19;;;;;;;;;;;;;;;25.43;22.13;99654.31;5100567;28;20325;-79
2024/02/18 00:52:47;;;;;;;;;;;;;;;25.38;22.26;99651.91;5113296;27;20527;-79
2024/02/18 00:55:13;;;;;;;;;;;;;;;25.19;22.69;99650.34;5087487;27;20667;-79
2024/02/18 00:57:39;;;;;;;;;;;;;;;25.15;22.33;99655.16;5104642;28;20019;-79
2024/02/18 01:00:07;;;;;;;;;;;;;;;25.10;22.39;99657.56;5104518;27;19963;-79
2024/02/18 01:02:33;;;;;;;;;;;;;;;24.49;23.14;99667.16;5102383;27;19920;-79
2024/02/18 01:04:59;;;;;;;;;;;;;;;24.66;22.87;99672.81;5101930;28;20289;-79
2024/02/18 01:07:25;;;;;;;;;;;;;;;24.48;23.19;99676.81;5103746;27;19928;-79
2024/02/18 01:09:51;;;;;;;;;;;;;;;25.31;22.23;99675.22;5082211;28;20434;-79
2024/02/18 01:12:17;;;;;;;;;;;;;;;24.70;23.01;99679.22;5106217;27;19954;-79
2024/02/18 01:14:44;;;;;;;;;;;;;;;24.77;22.61;99675.66;5109237;27;19920;-79
2024/02/18 01:17:10;;;;;;;;;;;;;;;24.49;22.81;99669.97;5109243;28;19919;-79
2024/02/18 01:19:36;;;;;;;;;;;;;;;24.65;22.79;99676.81;5112185;28;19962;-79
2024/02/18 01:22:02;;;;;;;;;;;;;;;25.03;22.62;99669.63;5104385;27;19924;-79
2024/02/18 01:24:28;;;;;;;;;;;;;;;25.11;22.02;99670.44;5105269;28;19923;-79
2024/02/18 01:26:54;;;;;;;;;;;;;;;25.41;21.97;99674.38;5092203;28;20403;-79
2024/02/18 01:29:22;;;;;;;;;;;;;;;24.57;23.01;99683.63;5110877;27;19931;-79
2024/02/18 01:31:48;;;;;;;;;;;;;;;25.38;22.01;99675.22;5099088;28;19924;-79
2024/02/18 01:34:15;;;;;;;;;;;;;;;25.60;21.87;99684.41;5094914;27;19951;-79
2024/02/18 01:36:41;;;;;;;;;;;;;;;25.89;21.18;99680.31;5111956;27;19931;-79
2024/02/18 01:39:07;;;;;;;;;;;;;;;25.58;21.66;99680.44;5099188;28;19920;-79
2024/02/18 01:41:33;;;;;;;;;;;;;;;26.07;21.01;99683.84;5104900;28;19920;-79
2024/02/18 01:43:59;;;;;;;;;;;;;;;26.23;20.98;99689.03;5105647;27;19923;-79
2024/02/18 01:46:25;;;;;;;;;;;;;;;24.95;24.55;99684.88;5107817;28;19985;-79
2024/02/18 01:48:52;;;;;;;;;;;;;;;25.00;22.28;99684.47;5108408;27;20007;-79
2024/02/18 01:51:19;;;;;;;;;;;;;;;25.47;21.89;99683.25;5105001;27;19959;-79
2024/02/18 01:53:46;;;;;;;;;;;;;;;25.47;21.82;99686.06;5106308;28;19930;-79
2024/02/18 01:56:15;;;;;;;;;;;;;;;25.78;21.16;99695.63;5087895;28;19954;-79
2024/02/18 01:58:42;;;;;;;;;;;;;;;25.36;21.65;99697.31;5106637;27;20257;-79
2024/02/18 02:01:08;;;;;;;;;;;;;;;25.39;21.52;99692.88;5113833;27;19920;-79
2024/02/18 02:03:35;;;;;;;;;;;;;;;25.53;21.50;99694.91;5098007;28;19927;-79
2024/02/18 02:06:03;;;;;;;;;;;;;;;25.67;21.52;99703.31;5108106;27;19927;-79
2024/02/18 02:08:30;;;;;;;;;;;;;;;26.05;20.89;99700.34;5113568;27;19920;-79
2024/02/18 02:10:56;;;;;;;;;;;;;;;25.99;20.79;99699.19;5109003;28;19955;-79
2024/02/18 02:13:22;;;;;;;;;;;;;;;25.60;21.49;99700.50;5106841;28;19959;-79
2024/02/18 02:15:49;;;;;;;;;;;;;;;25.48;21.25;99686.88;5109569;27;19927;-79
2024/02/18 02:18:15;;;;;;;;;;;;;;;25.78;21.17;99687.19;5105278;27;19920;-79
2024/02/18 02:20:41;;;;;;;;;;;;;;;25.88;20.94;99689.16;5109038;27;20411;-79
2024/02/18 02:23:07;;;;;;;;;;;;;;;26.01;21.06;99681.88;5113879;28;19931;-79
2024/02/18 02:25:34;;;;;;;;;;;;;;;26.28;20.36;99682.97;5105804;27;19965;-79
2024/02/18 02:28:07;;;;;;;;;;;;;;;26.35;20.42;99688.56;5099702;28;19977;-79
2024/02/18 02:30:33;;;;;;;;;;;;;;;26.13;20.66;99697.53;5095185;28;19920;-79
2024/02/18 02:32:59;;;;;;;;;;;;;;;25.30;20.90;99698.91;5104616;27;19920;-79
2024/02/18 02:35:26;;;;;;;;;;;;;;;24.48;22.30;99699.25;5111799;28;19927;-79
2024/02/18 02:37:52;;;;;;;;;;;;;;;24.81;21.50;99695.34;5111372;28;19923;-79
2024/02/18 02:40:18;;;;;;;;;;;;;;;25.05;21.38;99695.31;5104048;28;19920;-79
2024/02/18 02:42:44;;;;;;;;;;;;;;;25.40;21.15;99697.28;5109691;28;19919;-79
2024/02/18 02:45:10;;;;;;;;;;;;;;;25.40;20.98;99694.47;5106428;27;20293;-79
2024/02/18 02:47:37;;;;;;;;;;;;;;;25.09;21.28;99696.13;5104188;28;19928;-79
2024/02/18 02:50:03;;;;;;;;;;;;;;;24.28;22.39;99701.59;5105214;28;19926;-79
2024/02/18 02:52:29;;;;;;;;;;;;;;;24.43;21.79;99694.03;5103577;28;20300;-79
2024/02/18 02:54:56;;;;;;;;;;;;;;;24.08;22.17;99699.53;5106913;27;20300;-79
2024/02/18 02:57:22;;;;;;;;;;;;;;;24.10;21.95;99692.34;5108354;28;20335;-79
2024/02/18 02:59:49;;;;;;;;;;;;;;;23.96;22.22;99701.47;5098826;27;19931;-79
2024/02/18 03:02:15;;;;;;;;;;;;;;;23.90;22.49;99696.63;5109650;27;20014;-79
2024/02/18 03:04:41;;;;;;;;;;;;;;;22.65;23.56;99708.13;5108568;28;19984;-79
2024/02/18 03:07:07;;;;;;;;;;;;;;;22.20;26.67;99708.41;5103231;28;19915;-79
2024/02/18 03:09:33;;;;;;;;;;;;;;;23.19;22.69;99704.59;5100831;28;19927;-79
2024/02/18 03:11:59;;;;;;;;;;;;;;;23.42;22.61;99703.56;5105125;28;19943;-79
2024/02/18 03:14:25;;;;;;;;;;;;;;;24.27;21.80;99705.59;5103051;27;20343;-80
2024/02/18 03:16:52;;;;;;;;;;;;;;;23.58;22.32;99713.28;5097732;28;19924;-79
2024/02/18 03:19:18;;;;;;;;;;;;;;;24.51;21.37;99710.50;5097645;27;19923;-80
2024/02/18 03:21:45;;;;;;;;;;;;;;;24.59;20.95;99705.69;5099831;27;19920;-79
2024/02/18 03:24:11;;;;;;;;;;;;;;;24.87;21.04;99707.75;5112036;27;19954;-80
2024/02/18 03:26:37;;;;;;;;;;;;;;;24.48;21.99;99718.91;5103063;27;19931;-80
2024/02/18 03:29:03;;;;;;;;;;;;;;;24.32;21.42;99718.47;5098311;28;20343;-79
2024/02/18 03:31:29;;;;;;;;;;;;;;;23.46;22.05;99721.22;5094211;27;19991;-80
2024/02/18 03:33:56;;;;;;;;;;;;;;;23.94;21.61;99717.09;5093701;28;19924;-79
2024/02/18 03:36:23;;;;;;;;;;;;;;;23.55;22.27;99722.47;5093795;28;20396;-79
2024/02/18 03:38:49;;;;;;;;;;;;;;;23.32;23.13;99716.28;5093207;28;19916;-79
2024/02/18 03:41:15;;;;;;;;;;;;;;;23.54;22.35;99725.69;5093057;28;19916;-79
2024/02/18 03:43:41;;;;;;;;;;;;;;;23.47;22.09;99723.63;5093359;28;19923;-79
2024/02/18 03:46:08;;;;;;;;;;;;;;;24.03;21.49;99723.94;5094416;28;20374;-79
2024/02/18 03:48:34;;;;;;;;;;;;;;;24.34;21.41;99722.47;5094769;28;19961;-79
2024/02/18 03:51:00;;;;;;;;;;;;;;;23.98;21.14;99724.31;5093767;28;19916;-79
2024/02/18 03:53:26;;;;;;;;;;;;;;;24.20;21.09;99716.03;5093504;28;19924;-79
2024/02/18 03:55:52;;;;;;;;;;;;;;;24.49;20.81;99724.13;5093538;28;19912;-79
2024/02/18 03:58:18;;;;;;;;;;;;;;;25.19;20.13;99719.81;5111658;28;19916;-79
2024/02/18 04:00:46;;;;;;;;;;;;;;;25.35;19.65;99720.19;5113893;28;19943;-79
2024/02/18 04:03:13;;;;;;;;;;;;;;;25.60;19.58;99720.19;5112828;28;19919;-79
2024/02/18 04:05:39;;;;;;;;;;;;;;;25.77;19.30;99716.53;5101551;28;19924;-80
2024/02/18 04:08:05;;;;;;;;;;;;;;;25.80;19.12;99724.97;5093190;28;19919;-79
2024/02/18 04:10:31;;;;;;;;;;;;;;;25.68;19.47;99716.16;5093435;28;19920;-79
2024/02/18 04:12:57;;;;;;;;;;;;;;;25.61;19.24;99716.16;5093096;28;19920;-79
2024/02/18 04:15:23;;;;;;;;;;;;;;;25.45;19.21;99724.22;5093336;28;19916;-79
2024/02/18 04:17:49;;;;;;;;;;;;;;;25.65;19.20;99714.94;5093547;28;19977;-79
2024/02/18 04:20:16;;;;;;;;;;;;;;;25.48;19.18;99723.44;5093787;28;20381;-79
2024/02/18 04:22:43;;;;;;;;;;;;;;;25.40;19.45;99723.41;5094104;28;20385;-79
2024/02/18 04:25:09;;;;;;;;;;;;;;;25.28;19.10;99728.63;5092823;28;19923;-79
2024/02/18 04:27:35;;;;;;;;;;;;;;;25.52;19.26;99718.59;5098536;28;19927;-79
2024/02/18 04:30:01;;;;;;;;;;;;;;;25.39;19.62;99718.97;5097114;28;19984;-79
2024/02/18 04:32:27;;;;;;;;;;;;;;;25.49;19.08;99722.22;5097418;28;20289;-79
2024/02/18 04:34:53;;;;;;;;;;;;;;;25.30;19.11;99727.03;5098348;28;20304;-79
2024/02/18 04:37:19;;;;;;;;;;;;;;;24.86;19.81;99732.25;5097683;28;19999;-79
2024/02/18 04:39:45;;;;;;;;;;;;;;;24.98;19.86;99723.44;5079986;28;19967;-79
2024/02/18 04:42:11;;;;;;;;;;;;;;;25.05;19.44;99734.66;5097137;28;20292;-79
2024/02/18 04:44:37;;;;;;;;;;;;;;;24.83;19.72;99732.25;5096815;28;20364;-79
2024/02/18 04:47:03;;;;;;;;;;;;;;;25.51;19.34;99728.25;5097150;28;19958;-79
2024/02/18 04:49:29;;;;;;;;;;;;;;;26.21;18.42;99735.72;5097270;28;19959;-79
2024/02/18 04:51:55;;;;;;;;;;;;;;;26.64;18.26;99737.09;5097106;28;19912;-79
2024/02/18 04:54:21;;;;;;;;;;;;;;;26.88;18.17;99738.97;5098105;28;19973;-79
2024/02/18 04:56:47;;;;;;;;;;;;;;;26.73;17.50;99738.22;5103306;28;20339;-79
2024/02/18 04:59:13;;;;;;;;;;;;;;;26.64;17.92;99735.06;5096855;28;19938;-79
2024/02/18 05:01:39;;;;;;;;;;;;;;;26.83;17.92;99732.97;5096902;28;20357;-79
2024/02/18 05:04:08;;;;;;;;;;;;;;;26.92;17.51;99738.94;5117263;28;20007;-79
2024/02/18 05:06:34;;;;;;;;;;;;;;;26.92;17.59;99736.13;5100833;28;19916;-79
2024/02/18 05:09:00;;;;;;;;;;;;;;;27.08;17.58;99737.19;5096541;28;19916;-79
2024/02/18 05:11:26;;;;;;;;;;;;;;;27.16;17.67;99740.78;5116260;28;20012;-79
2024/02/18 05:13:52;;;;;;;;;;;;;;;27.16;17.52;99741.59;5115348;28;19916;-79
2024/02/18 05:16:18;;;;;;;;;;;;;;;27.16;17.40;99735.94;5098537;28;19938;-79
2024/02/18 05:18:47;;;;;;;;;;;;;;;27.25;17.65;99724.16;5116933;28;20026;-79
2024/02/18 05:21:13;;;;;;;;;;;;;;;27.46;17.28;99723.19;5102522;28;19920;-79
2024/02/18 05:23:40;;;;;;;;;;;;;;;27.67;16.98;99735.09;5095195;28;20467;-79
2024/02/18 05:26:06;;;;;;;;;;;;;;;27.55;17.35;99732.78;5115909;28;19951;-79
2024/02/18 05:28:33;;;;;;;;;;;;;;;27.18;17.65;99746.78;5077860;28;19974;-79
2024/02/18 05:30:59;;;;;;;;;;;;;;;26.90;17.98;99752.66;5097517;28;20385;-79
2024/02/18 05:33:25;;;;;;;;;;;;;;;26.78;18.08;99747.50;5096093;28;20012;-79
2024/02/18 05:35:51;;;;;;;;;;;;;;;26.61;18.34;99752.78;5096115;28;19928;-79
2024/02/18 05:38:18;;;;;;;;;;;;;;;26.79;18.12;99746.28;5095682;28;19923;-79
2024/02/18 05:40:44;;;;;;;;;;;;;;;26.54;18.21;99750.00;5096026;28;19923;-79
2024/02/18 05:43:10;;;;;;;;;;;;;;;26.60;18.20;99739.94;5096436;28;20270;-79
2024/02/18 05:45:36;;;;;;;;;;;;;;;26.51;18.18;99741.59;5116366;28;19958;-79
2024/02/18 05:48:02;;;;;;;;;;;;;;;26.68;18.06;99737.84;5114581;28;20018;-79
2024/02/18 05:50:28;;;;;;;;;;;;;;;26.86;17.81;99743.41;5116435;28;19920;-79
2024/02/18 05:52:54;;;;;;;;;;;;;;;26.94;17.83;99745.75;5116374;28;20330;-79
2024/02/18 05:55:20;;;;;;;;;;;;;;;26.88;17.87;99743.81;5113857;28;19923;-80
2024/02/18 05:57:46;;;;;;;;;;;;;;;26.85;17.77;99747.44;5096027;28;19989;-79
2024/02/18 06:00:13;;;;;;;;;;;;;;;26.72;18.12;99744.28;5096223;28;20373;-79
2024/02/18 06:02:39;;;;;;;;;;;;;;;26.70;18.20;99739.03;5116043;28;19919;-79
2024/02/18 06:05:05;;;;;;;;;;;;;;;26.68;18.39;99749.13;5114144;28;20296;-79
2024/02/18 06:07:31;;;;;;;;;;;;;;;26.70;18.29;99743.88;5115699;28;19945;-79
2024/02/18 06:09:57;;;;;;;;;;;;;;;26.86;18.40;99751.88;5116091;28;19916;-79
2024/02/18 06:12:23;;;;;;;;;;;;;;;26.87;18.60;99751.44;5115892;28;20289;-79
2024/02/18 06:14:49;;;;;;;;;;;;;;;27.04;18.19;99749.72;5097601;28;19919;-79
2024/02/18 06:17:15;;;;;;;;;;;;;;;27.35;17.96;99754.31;5096260;28;20433;-79
2024/02/18 06:19:42;;;;;;;;;;;;;;;27.57;17.82;99760.56;5115486;28;20308;-79
2024/02/18 06:22:08;;;;;;;;;;;;;;;27.69;17.63;99746.75;5100972;28;19941;-80
2024/02/18 06:24:34;;;;;;;;;;;;;;;27.73;17.94;99755.97;5095311;28;19923;-79
2024/02/18 06:27:00;;;;;;;;;;;;;;;27.63;18.01;99756.09;5095379;28;20369;-79
2024/02/18 06:29:26;;;;;;;;;;;;;;;27.63;17.86;99759.72;5095107;28;20392;-79
2024/02/18 06:31:52;;;;;;;;;;;;;;;27.61;17.80;99764.19;5094950;28;19922;-79
2024/02/18 06:34:18;;;;;;;;;;;;;;;27.31;18.16;99765.59;5095343;28;20010;-79
2024/02/18 06:36:44;;;;;;;;;;;;;;;27.08;18.54;99770.22;5094724;28;20434;-79
2024/02/18 06:39:11;;;;;;;;;;;;;;;27.01;18.44;99759.00;5096101;28;19953;-79
2024/02/18 06:41:37;;;;;;;;;;;;;;;26.86;18.68;99763.97;5094864;28;19916;-79
2024/02/18 06:44:03;;;;;;;;;;;;;;;26.81;18.79;99766.41;5094680;28;19927;-79
2024/02/18 06:46:29;;;;;;;;;;;;;;;26.68;18.72;99764.03;5094822;28;19916;-79
2024/02/18 06:48:55;;;;;;;;;;;;;;;26.88;18.89;99767.16;5093899;28;19916;-79
2024/02/18 06:51:24;;;;;;;;;;;;;;;27.13;18.78;99770.59;5096478;28;19923;-79
2024/02/18 06:53:52;;;;;;;;;;;;;;;27.24;18.61;99768.50;5115318;28;19963;-79
2024/02/18 06:56:18;;;;;;;;;;;;;;;26.97;18.67;99763.88;5107083;28;19923;-79
2024/02/18 06:58:44;;;;;;;;;;;;;;;27.03;18.55;99770.66;5115149;28;19915;-79
2024/02/18 07:01:10;;;;;;;;;;;;;;;27.08;19.05;99775.88;5114698;28;19916;-79
2024/02/18 07:03:36;;;;;;;;;;;;;;;27.33;18.86;99782.91;5100144;28;19959;-79
2024/02/18 07:06:02;;;;;;;;;;;;;;;27.20;18.96;99775.38;5094078;28;19970;-79
2024/02/18 07:08:28;;;;;;;;;;;;;;;27.16;18.84;99780.25;5094946;28;19963;-79
2024/02/18 07:10:54;;;;;;;;;;;;;;;27.20;18.86;99781.81;5094401;28;20392;-79
2024/02/18 07:13:20;;;;;;;;;;;;;;;26.89;19.11;99773.56;5095518;28;19996;-79
2024/02/18 07:15:46;;;;;;;;;;;;;;;26.98;19.06;99779.59;5101268;28;20353;-79
2024/02/18 07:18:13;;;;;;;;;;;;;;;26.99;19.24;99781.16;5111585;28;20399;-79
2024/02/18 07:20:39;;;;;;;;;;;;;;;27.07;19.05;99782.75;5103371;28;19947;-79
2024/02/18 07:23:05;;;;;;;;;;;;;;;26.93;19.49;99786.47;5114558;28;19924;-79
2024/02/18 07:25:31;;;;;;;;;;;;;;;26.90;19.19;99792.09;5110483;28;19923;-79
2024/02/18 07:27:57;;;;;;;;;;;;;;;26.55;19.83;99793.09;5094005;28;19916;-79
2024/02/18 07:30:23;;;;;;;;;;;;;;;26.46;19.74;99799.16;5095131;28;19920;-79
2024/02/18 07:32:49;;;;;;;;;;;;;;;25.76;20.01;99791.72;5075720;28;19916;-79
2024/02/18 07:35:15;;;;;;;;;;;;;;;24.40;21.79;99793.09;5105958;28;19927;-79
2024/02/18 07:37:42;;;;;;;;;;;;;;;24.75;21.62;99796.00;5094591;28;20018;-79
2024/02/18 07:40:08;;;;;;;;;;;;;;;24.99;21.24;99798.09;5093937;28;20270;-79
2024/02/18 07:42:34;;;;;;;;;;;;;;;25.09;21.01;99797.31;5097764;28;20288;-79
2024/02/18 07:45:01;;;;;;;;;;;;;;;25.45;21.07;99800.97;5114137;28;19920;-79
2024/02/18 07:47:27;;;;;;;;;;;;;;;24.72;20.73;99800.41;5112353;28;19916;-79
2024/02/18 07:49:53;;;;;;;;;;;;;;;25.20;20.21;99803.75;5113962;28;20369;-79
2024/02/18 07:52:19;;;;;;;;;;;;;;;23.78;22.02;99809.97;5113879;28;19923;-80
2024/02/18 07:54:45;;;;;;;;;;;;;;;21.28;24.25;99818.09;5089878;28;19970;-79
2024/02/18 07:57:12;;;;;;;;;;;;;;;21.48;26.16;99816.81;5093752;28;20446;-79
2024/02/18 07:59:38;;;;;;;;;;;;;;;21.62;23.98;99819.03;5097918;28;19915;-79
2024/02/18 08:02:04;;;;;;;;;;;;;;;22.38;23.86;99809.38;5113774;28;19916;-79
2024/02/18 08:04:30;;;;;;;;;;;;;;;20.93;24.58;99809.88;5111988;28;19915;-79
2024/02/18 08:06:56;;;;;;;;;;;;;;;22.88;23.29;99810.75;5113646;28;19998;-79
2024/02/18 08:09:22;;;;;;;;;;;;;;;22.60;22.67;99820.47;5113563;28;20363;-79
2024/02/18 08:11:48;;;;;;;;;;;;;;;20.75;24.18;99822.66;5095637;28;20353;-79
2024/02/18 08:14:14;;;;;;;;;;;;;;;21.38;23.67;99819.47;5113710;28;19954;-79
2024/02/18 08:16:40;;;;;;;;;;;;;;;20.11;24.24;99819.72;5112911;28;19950;-79
2024/02/18 08:19:06;;;;;;;;;;;;;;;21.17;23.03;99825.47;5113396;28;19937;-79
2024/02/18 08:21:34;;;;;;;;;;;;;;;19.54;24.83;99820.41;5112401;28;19920;-79
2024/02/18 08:24:00;;;;;;;;;;;;;;;20.12;24.52;99824.16;5113572;28;19924;-80
2024/02/18 08:26:26;;;;;;;;;;;;;;;19.32;25.62;99828.19;5097042;28;20267;-79
2024/02/18 08:28:53;;;;;;;;;;;;;;;18.25;26.36;99835.97;5093065;28;19916;-80
2024/02/18 08:31:19;;;;;;;;;;;;;;;18.26;26.53;99823.66;5093338;28;19916;-79
2024/02/18 08:33:46;;;;;;;;;;;;;;;17.77;27.72;99825.75;5093596;28;19969;-79
2024/02/18 08:36:12;;;;;;;;;;;;;;;18.50;26.59;99831.97;5093775;28;19920;-79
2024/02/18 08:38:39;;;;;;;;;;;;;;;19.28;25.62;99818.13;5093547;28;19973;-79
2024/02/18 08:41:05;;;;;;;;;;;;;;;18.75;27.09;99833.44;5092842;28;19962;-80
2024/02/18 08:43:33;;;;;;;;;;;;;;;20.47;24.41;99827.69;5092997;28;19928;-79
2024/02/18 08:45:59;;;;;;;;;;;;;;;21.33;23.26;99829.75;5093098;28;19959;-79
2024/02/18 08:48:25;;;;;;;;;;;;;;;19.85;24.07;99834.28;5092861;28;20381;-79
2024/02/18 08:50:51;;;;;;;;;;;;;;;19.32;24.70;99839.34;5099316;28;19951;-79
2024/02/18 08:53:17;;;;;;;;;;;;;;;18.59;26.03;99844.56;5112122;28;19924;-79
2024/02/18 08:55:43;;;;;;;;;;;;;;;19.61;24.78;99837.28;5098453;28;19918;-79
2024/02/18 08:58:09;;;;;;;;;;;;;;;19.62;24.47;99842.50;5093030;28;19923;-79
2024/02/18 09:00:37;;;;;;;;;;;;;;;21.91;21.60;99838.69;5092661;28;19927;-79
2024/02/18 09:03:04;;;;;;;;;;;;;;;20.29;23.47;99840.47;5091965;28;19920;-79
2024/02/18 09:05:30;;;;;;;;;;;;;;;19.67;24.04;99844.22;5090274;28;19916;-79
2024/02/18 09:07:56;;;;;;;;;;;;;;;20.51;24.26;99843.31;5112142;28;20375;-79
2024/02/18 09:10:24;;;;;;;;;;;;;;;21.19;22.55;99840.69;5108182;28;20379;-79
2024/02/18 09:13:01;;;;;;;;;;;;;;;23.24;21.15;99840.75;5095561;28;20381;-79
2024/02/18 09:15:27;;;;;;;;;;;;;;;22.27;21.58;99839.19;5092110;28;20330;-79
2024/02/18 09:17:54;;;;;;;;;;;;;;;23.28;21.53;99842.38;5116772;28;19916;-79
2024/02/18 09:20:20;;;;;;;;;;;;;;;24.56;19.54;99849.72;5116352;28;19915;-79
2024/02/18 09:22:46;;;;;;;;;;;;;;;24.74;18.97;99839.34;5116663;28;19924;-79
2024/02/18 09:25:12;;;;;;;;;;;;;;;22.49;21.25;99844.69;5099514;28;19927;-79
2024/02/18 09:27:38;;;;;;;;;;;;;;;24.27;19.91;99848.75;5097443;28;19962;-79
2024/02/18 09:30:04;;;;;;;;;;;;;;;22.91;20.96;99844.41;5096208;28;20373;-79
2024/02/18 09:32:30;;;;;;;;;;;;;;;23.01;21.50;99842.91;5096245;28;20026;-79
2024/02/18 09:34:56;;;;;;;;;;;;;;;22.56;21.33;99832.78;5096432;28;20007;-79
2024/02/18 09:37:22;;;;;;;;;;;;;;;23.45;21.20;99831.75;5096115;28;20361;-79
2024/02/18 09:39:48;;;;;;;;;;;;;;;25.23;18.88;99825.44;5095993;28;19969;-79
2024/02/18 09:42:14;;;;;;;;;;;;;;;25.88;17.94;99822.22;5105337;28;19915;-79
2024/02/18 09:44:42;;;;;;;;;;;;;;;26.61;17.47;99816.78;5114486;28;20409;-79
2024/02/18 09:47:09;;;;;;;;;;;;;;;27.46;17.71;99813.47;5116379;28;19927;-79
2024/02/18 09:49:36;;;;;;;;;;;;;;;26.05;18.12;99817.75;5116438;28;19916;-79
2024/02/18 09:52:02;;;;;;;;;;;;;;;26.58;18.33;99817.63;5116271;28;19920;-80
2024/02/18 09:54:30;;;;;;;;;;;;;;;27.26;18.14;99808.34;5115573;28;20414;-79
2024/02/18 09:56:56;;;;;;;;;;;;;;;28.21;16.82;99803.09;5115975;28;19911;-79
2024/02/18 09:59:22;;;;;;;;;;;;;;;28.47;16.12;99800.31;5113077;28;19927;-79
2024/02/18 10:01:51;;;;;;;;;;;;;;;27.65;16.39;99793.97;5114585;28;20022;-79
2024/02/18 10:04:18;;;;;;;;;;;;;;;27.45;16.38;99801.38;5116195;28;19916;-79
2024/02/18 10:06:44;;;;;;;;;;;;;;;26.43;16.95;99802.78;5116173;28;19999;-79
2024/02/18 10:09:10;;;;;;;;;;;;;;;24.82;19.19;99793.25;5115896;28;19918;-80
2024/02/18 10:11:36;;;;;;;;;;;;;;;26.03;19.10;99792.03;5115926;28;19946;-80
2024/02/18 10:14:04;;;;;;;;;;;;;;;26.67;17.89;99790.63;5115520;28;19915;-79
2024/02/18 10:16:30;;;;;;;;;;;;;;;26.43;17.80;99797.16;5115592;28;19969;-79
2024/02/18 10:18:56;;;;;;;;;;;;;;;26.80;17.64;99796.59;5114117;28;19916;-79
2024/02/18 10:21:25;;;;;;;;;;;;;;;26.85;17.33;99795.34;5115564;28;20439;-79
2024/02/18 10:23:51;;;;;;;;;;;;;;;25.07;17.77;99793.28;5096907;28;19931;-79
2024/02/18 10:26:17;;;;;;;;;;;;;;;24.21;18.96;99791.41;5095195;28;19919;-79
2024/02/18 10:28:43;;;;;;;;;;;;;;;25.32;18.34;99778.03;5094885;28;19920;-79
2024/02/18 10:31:09;;;;;;;;;;;;;;;26.40;17.72;99777.44;5095159;28;19916;-79
2024/02/18 10:33:36;;;;;;;;;;;;;;;27.09;16.86;99774.66;5087591;28;20003;-79
2024/02/18 10:36:09;;;;;;;;;;;;;;;26.01;17.89;99764.31;5100974;28;20307;-79
2024/02/18 10:38:38;;;;;;;;;;;;;;;23.36;19.83;99767.63;5115415;28;20010;-79
2024/02/18 10:41:07;;;;;;;;;;;;;;;23.04;20.20;99760.88;5115293;28;19916;-79
2024/02/18 10:43:38;;;;;;;;;;;;;;;24.69;19.13;99747.06;5112975;28;20006;-80
2024/02/18 10:46:05;;;;;;;;;;;;;;;21.92;21.69;99756.41;5115097;28;20281;-79
2024/02/18 10:48:34;;;;;;;;;;;;;;;22.23;21.64;99757.19;5115103;28;19935;-79
2024/02/18 10:51:01;;;;;;;;;;;;;;;19.42;24.30;99753.66;5114434;28;19916;-80
2024/02/18 10:53:32;;;;;;;;;;;;;;;18.52;26.25;99755.34;5109949;27;19938;-80
2024/02/18 10:56:12;;;;;;;;;;;;;;;21.66;21.52;99744.41;5135698;27;19918;-80
2024/02/18 10:58:44;;;;;;;;;;;;;;;21.21;22.90;99740.53;5097973;27;20392;-79
2024/02/18 11:01:12;;;;;;;;;;;;;;;21.61;22.95;99731.56;5114773;28;19923;-79
2024/02/18 11:03:38;;;;;;;;;;;;;;;19.59;24.76;99737.34;5115010;28;19922;-79
2024/02/18 11:06:05;;;;;;;;;;;;;;;19.00;25.03;99733.91;5114475;28;19916;-79
2024/02/18 11:08:33;;;;;;;;;;;;;;;19.17;25.04;99733.53;5094872;28;19960;-79
2024/02/18 11:10:59;;;;;;;;;;;;;;;19.42;24.93;99732.16;5077319;28;19916;-79
2024/02/18 11:13:27;;;;;;;;;;;;;;;20.23;23.72;99731.19;5094032;28;20033;-79
2024/02/18 11:15:54;;;;;;;;;;;;;;;19.36;24.28;99727.25;5094052;28;20381;-79
2024/02/18 11:18:21;;;;;;;;;;;;;;;20.79;22.12;99723.06;5094249;28;20064;-80
2024/02/18 11:20:47;;;;;;;;;;;;;;;20.17;23.63;99726.22;5101208;28;19920;-79
2024/02/18 11:23:13;;;;;;;;;;;;;;;18.38;25.36;99729.91;5094732;28;19924;-79
2024/02/18 11:25:39;;;;;;;;;;;;;;;20.72;23.47;99720.16;5093838;28;19916;-80
2024/02/18 11:28:07;;;;;;;;;;;;;;;19.40;23.87;99717.00;5095305;28;19916;-80
2024/02/18 11:30:33;;;;;;;;;;;;;;;19.70;24.18;99718.06;5093820;28;20316;-80
2024/02/18 11:32:59;;;;;;;;;;;;;;;19.07;24.66;99728.50;5093975;28;19917;-80
2024/02/18 11:35:25;;;;;;;;;;;;;;;20.88;22.59;99718.03;5093693;28;19912;-79
2024/02/18 11:37:51;;;;;;;;;;;;;;;21.31;22.13;99719.53;5093937;28;20026;-80
2024/02/18 11:40:18;;;;;;;;;;;;;;;20.30;22.84;99719.38;5095306;28;20007;-79
2024/02/18 11:42:47;;;;;;;;;;;;;;;22.23;21.79;99710.44;5114247;28;19916;-79
2024/02/18 11:45:15;;;;;;;;;;;;;;;23.00;20.00;99693.63;5112315;28;19920;-79
2024/02/18 11:47:47;;;;;;;;;;;;;;;23.77;19.73;99686.94;5107598;28;20416;-79
2024/02/18 11:50:14;;;;;;;;;;;;;;;25.69;18.09;99684.81;5093542;28;20385;-80
2024/02/18 11:52:44;;;;;;;;;;;;;;;24.02;18.91;99677.44;5093150;28;19924;-80
2024/02/18 11:55:13;;;;;;;;;;;;;;;25.16;19.06;99668.00;5093321;28;20391;-79
2024/02/18 11:57:40;;;;;;;;;;;;;;;26.79;16.92;99670.19;5097888;28;19923;-80
2024/02/18 12:00:09;;;;;;;;;;;;;;;24.67;18.48;99659.56;5113885;28;20373;-80
2024/02/18 12:02:36;;;;;;;;;;;;;;;21.63;21.04;99670.53;5112794;28;20337;-80
2024/02/18 12:05:03;;;;;;;;;;;;;;;19.72;23.39;99663.59;5114098;28;19919;-79
2024/02/18 12:07:30;;;;;;;;;;;;;;;21.65;21.77;99664.56;5131910;27;19915;-79
2024/02/18 12:09:56;;;;;;;;;;;;;;;21.03;22.58;99666.00;5134396;27;19916;-79
2024/02/18 12:12:22;;;;;;;;;;;;;;;21.94;21.18;99660.94;5134637;27;19919;-80
2024/02/18 12:14:50;;;;;;;;;;;;;;;22.77;20.95;99653.84;5120946;27;19942;-79
2024/02/18 12:17:16;;;;;;;;;;;;;;;21.76;21.41;99654.31;5093810;28;19920;-79
2024/02/18 12:19:42;;;;;;;;;;;;;;;23.95;19.79;99646.53;5095123;28;19970;-79
2024/02/18 12:22:08;;;;;;;;;;;;;;;26.07;16.96;99644.44;5113236;28;19920;-80
2024/02/18 12:24:35;;;;;;;;;;;;;;;26.83;16.70;99637.13;5113470;28;19933;-79
2024/02/18 12:27:01;;;;;;;;;;;;;;;26.00;16.98;99632.41;5113833;28;20373;-80
2024/02/18 12:29:27;;;;;;;;;;;;;;;24.99;18.22;99635.13;5113485;28;19921;-79
2024/02/18 12:31:53;;;;;;;;;;;;;;;21.86;20.76;99634.09;5106809;28;20552;-80
2024/02/18 12:34:21;;;;;;;;;;;;;;;23.93;19.01;99620.09;5093759;28;19978;-79
2024/02/18 12:36:48;;;;;;;;;;;;;;;24.54;18.48;99610.59;5093775;28;19916;-80
2024/02/18 12:39:14;;;;;;;;;;;;;;;25.07;17.63;99617.03;5092987;28;19916;-80
2024/02/18 12:41:40;;;;;;;;;;;;;;;22.65;20.66;99621.34;5093022;28;19924;-80
2024/02/18 12:44:06;;;;;;;;;;;;;;;24.00;19.00;99617.31;5093026;28;19959;-80